Time;durP1;ratioP1;P1;durP2;ratioP2;P2;SDS_P1;SDS_P2;PMS_P1;PMS_P2;Temp;Humidity;BMP_temperature;BMP_pressure;BME280_temperature;BME280_humidity;BME280_pressure;Samples;Min_cycle;Max_cycle;Signal;HPM_P1;HPM_P2
2022/04/06 00:00:29;;;;;;;5.27;4.77;;;;;;;9.11;96.38;96103.97;5032577;28;20198;-70
2022/04/06 00:02:54;;;;;;;4.90;4.40;;;;;;;9.09;96.42;96102.59;5033618;28;20174;-70
2022/04/06 00:05:20;;;;;;;5.50;5.00;;;;;;;9.13;96.32;96108.97;5032918;28;20208;-70
2022/04/06 00:07:45;;;;;;;5.13;4.73;;;;;;;9.10;96.54;96097.13;5033157;28;20179;-70
2022/04/06 00:10:12;;;;;;;5.57;4.33;;;;;;;9.26;95.80;96100.03;5032705;28;20195;-70
2022/04/06 00:12:38;;;;;;;5.67;4.93;;;;;;;9.17;96.11;96092.56;5015899;28;20191;-69
2022/04/06 00:15:06;;;;;;;5.50;4.93;;;;;;;9.17;95.70;96099.63;5033053;28;20249;-69
2022/04/06 00:17:32;;;;;;;5.30;4.83;;;;;;;9.19;96.25;96094.97;5033290;28;20660;-69
2022/04/06 00:19:57;;;;;;;5.83;4.97;;;;;;;9.01;97.17;96095.16;5034425;28;20213;-69
2022/04/06 00:22:22;;;;;;;5.50;5.00;;;;;;;8.96;97.92;96092.44;5037387;28;20657;-70
2022/04/06 00:24:48;;;;;;;5.77;4.83;;;;;;;9.24;95.90;96092.44;5036633;28;20209;-68
2022/04/06 00:27:14;;;;;;;8.00;4.97;;;;;;;9.25;95.96;96090.63;5037093;28;20183;-69
2022/04/06 00:29:40;;;;;;;4.73;4.33;;;;;;;9.10;97.27;96080.66;5036043;28;20178;-68
2022/04/06 00:32:06;;;;;;;5.07;4.53;;;;;;;9.24;96.45;96078.56;5037053;28;20218;-69
2022/04/06 00:37:16;;;;;;;7.60;4.90;;;;;;;9.03;97.96;96080.78;5036689;28;20177;-70
2022/04/06 00:39:41;;;;;;;5.07;4.63;;;;;;;9.13;98.06;96077.59;5036939;28;20183;-70
2022/04/06 00:42:07;;;;;;;4.57;4.17;;;;;;;9.13;98.08;96077.59;5036354;28;20183;-70
2022/04/06 00:44:35;;;;;;;5.70;4.67;;;;;;;9.24;97.80;96073.34;5037125;28;20206;-69
2022/04/06 00:47:05;;;;;;;4.97;4.57;;;;;;;9.22;97.34;96070.94;5036522;28;20190;-69
2022/04/06 00:49:31;;;;;;;5.73;5.03;;;;;;;9.13;97.76;96072.38;5036401;28;20664;-69
2022/04/06 00:51:59;;;;;;;4.97;4.53;;;;;;;9.12;98.29;96078.63;5036227;28;20200;-70
2022/04/06 00:54:25;;;;;;;4.80;4.27;;;;;;;9.31;97.63;96064.28;5036249;28;20190;-69
2022/04/06 00:56:50;;;;;;;5.93;4.80;;;;;;;9.27;97.58;96063.19;5035776;28;20182;-68
2022/04/06 00:59:17;;;;;;;7.40;4.63;;;;;;;9.06;98.75;96056.03;5035617;28;20641;-69
2022/04/06 01:01:45;;;;;;;6.30;5.47;;;;;;;9.39;97.52;96057.91;5034820;28;20422;-69
2022/04/06 01:04:10;;;;;;;5.65;5.15;;;;;;;9.44;96.64;96055.38;5034139;28;20479;-68
2022/04/06 01:06:35;;;;;;;5.10;4.70;;;;;;;9.24;97.51;96053.22;5035724;28;20269;-68
2022/04/06 01:09:02;;;;;;;4.97;4.57;;;;;;;9.13;98.58;96059.28;5036280;28;20194;-69
2022/04/06 01:11:27;;;;;;;4.87;4.47;;;;;;;9.18;97.56;96052.34;5036224;28;20210;-70
2022/04/06 01:13:54;;;;;;;5.60;5.10;;;;;;;9.24;97.52;96045.38;5036039;28;20719;-70
2022/04/06 01:16:20;;;;;;;5.07;4.27;;;;;;;9.09;98.34;96043.28;5034600;28;20221;-69
2022/04/06 01:18:45;;;;;;;6.73;4.60;;;;;;;9.17;97.82;96045.50;5036262;28;20182;-70
2022/04/06 01:21:12;;;;;;;5.07;4.63;;;;;;;9.07;98.25;96050.56;5036085;28;20237;-70
2022/04/06 01:23:41;;;;;;;5.93;4.90;;;;;;;9.08;98.83;96043.53;5035486;28;20202;-69
2022/04/06 01:26:11;;;;;;;5.03;4.53;;;;;;;9.10;98.83;96038.84;5026144;28;20210;-68
2022/04/06 01:28:38;;;;;;;4.67;4.27;;;;;;;9.06;98.75;96043.75;5017354;28;20270;-70
2022/04/06 01:31:04;;;;;;;5.63;5.13;;;;;;;9.19;98.42;96038.22;5017139;28;20229;-70
2022/04/06 01:33:30;;;;;;;7.00;4.80;;;;;;;9.08;99.08;96033.06;5020196;28;20195;-70
2022/04/06 01:35:56;;;;;;;5.93;4.17;;;;;;;9.12;98.83;96034.19;5035001;28;20266;-68
2022/04/06 01:38:23;;;;;;;5.23;4.73;;;;;;;9.17;98.55;96032.44;5035663;28;20198;-68
2022/04/06 01:40:48;;;;;;;5.50;5.00;;;;;;;9.09;99.57;96032.81;5035766;28;20182;-69
2022/04/06 01:43:13;;;;;;;5.57;4.60;;;;;;;9.25;98.28;96022.63;5035420;28;20252;-69
2022/04/06 01:45:39;;;;;;;4.67;4.27;;;;;;;9.06;99.80;96024.66;5017967;28;20174;-69
2022/04/06 01:48:04;;;;;;;7.30;4.97;;;;;;;9.10;98.74;96029.19;5035621;28;20190;-69
2022/04/06 01:53:14;;;;;;;5.03;4.50;;;;;;;9.15;98.48;96031.88;5035527;28;20659;-70
2022/04/06 01:55:39;;;;;;;6.53;4.70;;;;;;;9.14;98.48;96027.66;5035137;28;20182;-69
2022/04/06 01:58:04;;;;;;;5.17;4.57;;;;;;;9.00;99.43;96028.22;5035411;28;20289;-69
2022/04/06 02:00:30;;;;;;;6.60;4.70;;;;;;;9.11;98.68;96025.53;5016838;28;20189;-70
2022/04/06 02:02:55;;;;;;;5.20;4.67;;;;;;;9.02;99.11;96019.13;5034973;28;20252;-71
2022/04/06 02:05:21;;;;;;;4.77;4.37;;;;;;;9.02;98.49;96013.88;5034885;28;20286;-69
2022/04/06 02:07:48;;;;;;;4.90;4.50;;;;;;;9.04;98.70;96019.66;5035064;28;20656;-69
2022/04/06 02:10:14;;;;;;;4.87;4.47;;;;;;;9.00;98.75;96012.53;5034480;28;20182;-69
2022/04/06 02:12:41;;;;;;;4.67;4.27;;;;;;;9.14;98.44;96011.97;5034819;28;20711;-68
2022/04/06 02:15:10;;;;;;;5.97;4.63;;;;;;;9.25;97.73;96020.03;5034931;28;20189;-68
2022/04/06 02:17:36;;;;;;;4.90;4.40;;;;;;;9.21;97.95;96016.28;5035065;28;20183;-70
2022/04/06 02:20:02;;;;;;;5.93;4.87;;;;;;;9.13;98.66;96009.63;5034625;28;20617;-68
2022/04/06 02:22:27;;;;;;;5.30;4.77;;;;;;;9.06;99.07;96008.97;5017024;28;20186;-69
2022/04/06 02:24:53;;;;;;;5.20;4.70;;;;;;;9.09;99.45;96006.66;5034579;28;20278;-69
2022/04/06 02:27:18;;;;;;;5.30;4.80;;;;;;;9.04;99.49;96003.97;5034647;28;20179;-69
2022/04/06 02:29:44;;;;;;;5.03;4.53;;;;;;;9.12;99.40;95998.38;5033749;28;20187;-69
2022/04/06 02:32:09;;;;;;;4.97;4.57;;;;;;;9.11;99.30;96002.00;5016881;28;20230;-67
2022/04/06 02:34:36;;;;;;;5.87;4.83;;;;;;;9.15;98.75;96005.72;5016941;28;20187;-69
2022/04/06 02:37:01;;;;;;;7.27;5.20;;;;;;;9.19;98.55;96003.47;5034168;28;20568;-69
2022/04/06 02:39:27;;;;;;;5.33;4.83;;;;;;;9.28;97.62;96007.25;5034020;28;20179;-70
2022/04/06 02:41:53;;;;;;;5.07;4.57;;;;;;;9.20;98.98;96002.41;5034679;28;20186;-68
2022/04/06 02:44:18;;;;;;;6.00;4.93;;;;;;;9.15;98.47;96007.56;5015182;28;20728;-68
2022/04/06 02:46:45;;;;;;;5.60;5.10;;;;;;;9.01;100.00;96003.66;5034337;28;20244;-69
2022/04/06 02:49:11;;;;;;;6.50;5.53;;;;;;;9.00;100.00;96002.88;5033913;28;20667;-69
2022/04/06 02:51:36;;;;;;;6.60;5.23;;;;;;;8.97;100.00;96000.72;5033948;28;20191;-69
2022/04/06 02:54:02;;;;;;;5.97;5.13;;;;;;;9.21;99.13;95992.75;5033693;28;20190;-69
2022/04/06 02:56:28;;;;;;;7.43;5.60;;;;;;;9.01;99.61;95988.78;5033850;28;20183;-68
2022/04/06 02:58:53;;;;;;;7.33;5.80;;;;;;;8.89;100.00;95995.09;5033462;28;20645;-69
2022/04/06 03:01:19;;;;;;;6.70;5.57;;;;;;;8.97;100.00;95989.50;5033050;28;20277;-68
2022/04/06 03:03:45;;;;;;;6.43;5.20;;;;;;;9.02;99.74;95992.97;5033555;28;20206;-69
2022/04/06 03:06:10;;;;;;;6.17;5.13;;;;;;;9.00;99.53;95989.81;5033738;28;20214;-69
2022/04/06 03:08:35;;;;;;;6.20;5.60;;;;;;;9.23;98.47;95986.25;5016190;28;20584;-68
2022/04/06 03:11:01;;;;;;;7.50;6.00;;;;;;;9.37;98.06;95984.09;5033386;28;20195;-69
2022/04/06 03:13:26;;;;;;;8.03;5.43;;;;;;;9.05;99.11;95979.44;5033796;28;20549;-69
2022/04/06 03:15:52;;;;;;;6.30;5.70;;;;;;;9.02;100.00;95972.06;5034453;28;20629;-68
2022/04/06 03:18:17;;;;;;;6.27;5.20;;;;;;;8.99;100.00;95969.91;5034205;28;20182;-69
2022/04/06 03:20:42;;;;;;;5.23;4.73;;;;;;;9.00;100.00;95966.28;5034096;28;20240;-68
2022/04/06 03:23:08;;;;;;;6.13;5.50;;;;;;;9.03;99.52;95973.63;5033949;28;20562;-68
2022/04/06 03:25:34;;;;;;;6.60;5.73;;;;;;;9.02;100.00;95961.63;5033468;28;20634;-69
2022/04/06 03:27:59;;;;;;;7.67;5.93;;;;;;;9.06;99.63;95954.88;5033563;28;20187;-70
2022/04/06 03:30:24;;;;;;;8.87;5.83;;;;;;;9.12;99.83;95958.38;5032611;28;20195;-69
2022/04/06 03:32:50;;;;;;;6.63;5.93;;;;;;;9.12;99.80;95958.38;5016132;28;20645;-69
2022/04/06 03:35:15;;;;;;;6.13;5.40;;;;;;;9.01;100.00;95951.41;5016932;28;20182;-69
2022/04/06 03:37:41;;;;;;;7.67;5.43;;;;;;;9.04;99.90;95956.13;5032973;28;20194;-70
2022/04/06 03:40:08;;;;;;;6.60;5.73;;;;;;;9.00;99.99;95958.44;5033498;28;20236;-69
2022/04/06 03:42:34;;;;;;;5.60;5.10;;;;;;;9.02;100.00;95953.78;5033810;28;20178;-69
2022/04/06 03:45:00;;;;;;;6.37;4.90;;;;;;;8.89;100.00;95955.88;5033251;28;20688;-69
2022/04/06 03:47:33;;;;;;;6.00;5.50;;;;;;;8.93;100.00;95960.41;5033102;28;20767;-68
2022/04/06 03:49:59;;;;;;;6.77;5.83;;;;;;;8.94;100.00;95950.75;5033023;28;20204;-70
2022/04/06 03:52:25;;;;;;;7.63;5.50;;;;;;;8.97;100.00;95951.06;5033548;28;20178;-69
2022/04/06 03:54:51;;;;;;;6.17;5.57;;;;;;;9.14;99.91;95949.25;5032794;28;20706;-69
2022/04/06 03:57:17;;;;;;;8.57;6.50;;;;;;;8.93;100.00;95946.53;5025045;28;20647;-69
2022/04/06 03:59:42;;;;;;;9.50;6.23;;;;;;;8.97;100.00;95943.22;5033500;28;20255;-68
2022/04/06 04:02:08;;;;;;;6.77;6.07;;;;;;;9.06;99.90;95935.78;5032785;28;20235;-70
2022/04/06 04:04:33;;;;;;;6.87;5.70;;;;;;;9.02;99.92;95942.53;5033374;28;20207;-69
2022/04/06 04:06:58;;;;;;;7.17;6.20;;;;;;;9.08;99.38;95936.34;5033401;28;20193;-70
2022/04/06 04:09:24;;;;;;;6.10;5.47;;;;;;;8.97;99.72;95939.84;5016556;28;20182;-69
2022/04/06 04:11:49;;;;;;;8.03;6.40;;;;;;;8.89;100.00;95934.97;5016130;28;20657;-69
2022/04/06 04:14:15;;;;;;;8.80;6.40;;;;;;;8.82;100.00;95934.34;5033016;28;20194;-68
2022/04/06 04:16:41;;;;;;;6.93;6.20;;;;;;;8.81;100.00;95936.16;5033245;28;20203;-69
2022/04/06 04:19:06;;;;;;;6.57;5.93;;;;;;;8.85;100.00;95933.88;5032850;28;21094;-69
2022/04/06 04:21:35;;;;;;;7.23;6.43;;;;;;;8.98;100.00;95930.94;5032897;28;20616;-70
2022/04/06 04:24:05;;;;;;;7.23;6.27;;;;;;;9.05;99.11;95932.38;5032650;28;20284;-69
2022/04/06 04:26:31;;;;;;;6.70;6.10;;;;;;;8.90;100.00;95937.38;5032430;28;20185;-68
2022/04/06 04:28:57;;;;;;;6.97;6.27;;;;;;;8.68;100.00;95933.84;5032140;28;20190;-70
2022/04/06 04:31:23;;;;;;;9.70;6.47;;;;;;;8.94;100.00;95919.38;5033007;28;20186;-69
2022/04/06 04:33:49;;;;;;;7.07;6.37;;;;;;;8.88;100.00;95930.78;5033138;28;20237;-69
2022/04/06 04:36:15;;;;;;;7.50;6.23;;;;;;;8.85;100.00;95933.88;5033063;28;20190;-72
2022/04/06 04:38:42;;;;;;;8.03;6.80;;;;;;;8.94;100.00;95933.25;5033386;28;20600;-69
2022/04/06 04:41:08;;;;;;;7.20;6.13;;;;;;;8.86;100.00;95931.00;5014614;28;20625;-70
2022/04/06 04:43:34;;;;;;;9.97;6.97;;;;;;;8.91;100.00;95925.91;5032220;28;20218;-69
2022/04/06 04:45:59;;;;;;;7.73;6.33;;;;;;;8.69;100.00;95919.78;5032060;28;20567;-70
2022/04/06 04:48:25;;;;;;;8.07;6.47;;;;;;;8.70;100.00;95929.19;5031823;28;20191;-70
2022/04/06 04:50:51;;;;;;;7.13;6.03;;;;;;;8.82;100.00;95923.88;5031960;28;20198;-69
2022/04/06 04:53:16;;;;;;;7.00;6.30;;;;;;;8.87;100.00;95921.34;5031657;28;20205;-69
2022/04/06 04:55:42;;;;;;;8.23;6.70;;;;;;;8.90;100.00;95928.72;5031639;28;20202;-70
2022/04/06 04:58:07;;;;;;;7.73;6.63;;;;;;;8.74;100.00;95927.69;5031657;28;20186;-70
2022/04/06 05:00:33;;;;;;;8.20;6.33;;;;;;;8.80;100.00;95918.13;5031379;28;20575;-70
2022/04/06 05:02:58;;;;;;;7.97;6.40;;;;;;;8.88;100.00;95921.13;5031858;28;20655;-70
2022/04/06 05:05:24;;;;;;;7.37;6.60;;;;;;;8.90;100.00;95923.50;5031542;28;20207;-69
2022/04/06 05:07:50;;;;;;;9.17;6.53;;;;;;;9.01;100.00;95912.97;5034166;28;20183;-70
2022/04/06 05:10:15;;;;;;;9.60;6.47;;;;;;;8.90;100.00;95913.06;5035652;28;20179;-69
2022/04/06 05:12:40;;;;;;;7.30;6.60;;;;;;;8.92;100.00;95916.22;5017982;28;20194;-69
2022/04/06 05:15:07;;;;;;;8.03;5.77;;;;;;;8.91;100.00;95919.88;5035539;28;20190;-70
2022/04/06 05:17:34;;;;;;;6.67;5.97;;;;;;;8.90;100.00;95915.66;5035742;28;20185;-70
2022/04/06 05:20:00;;;;;;;8.63;6.83;;;;;;;8.99;100.00;95916.84;5035624;28;20183;-69
2022/04/06 05:22:25;;;;;;;6.47;5.87;;;;;;;8.85;100.00;95920.81;5035572;28;20186;-70
2022/04/06 05:24:52;;;;;;;7.77;6.23;;;;;;;8.93;100.00;95918.59;5035408;28;20206;-70
2022/04/06 05:27:17;;;;;;;6.40;5.80;;;;;;;8.95;100.00;95916.53;5034569;28;20186;-70
2022/04/06 05:29:43;;;;;;;6.43;5.83;;;;;;;8.87;100.00;95919.53;5035212;28;20663;-69
2022/04/06 05:32:09;;;;;;;9.13;6.30;;;;;;;8.79;100.00;95919.94;5017542;28;20625;-69
2022/04/06 05:34:35;;;;;;;6.13;5.23;;;;;;;8.89;100.00;95912.25;5034984;28;20195;-69
2022/04/06 05:37:01;;;;;;;6.30;5.70;;;;;;;8.94;100.00;95914.16;5034594;28;20190;-70
2022/04/06 05:39:27;;;;;;;8.07;5.83;;;;;;;8.89;100.00;95914.06;5034999;28;20190;-68
2022/04/06 05:41:52;;;;;;;6.37;5.77;;;;;;;9.03;100.00;95913.53;5034547;28;20191;-69
2022/04/06 05:44:18;;;;;;;6.03;5.43;;;;;;;9.24;100.00;95922.47;5035177;28;20237;-68
2022/04/06 05:46:44;;;;;;;7.37;6.33;;;;;;;9.11;100.00;95923.59;5035154;28;20194;-70
2022/04/06 05:49:09;;;;;;;7.50;6.17;;;;;;;9.29;100.00;95919.94;5034983;28;20643;-70
2022/04/06 05:51:34;;;;;;;6.37;5.50;;;;;;;9.30;100.00;95918.91;5034910;28;20196;-70
2022/04/06 05:54:02;;;;;;;6.17;5.53;;;;;;;9.38;99.59;95915.09;5017011;28;20189;-68
2022/04/06 05:56:28;;;;;;;7.03;5.70;;;;;;;9.40;99.65;95921.66;5017099;28;20273;-69
2022/04/06 05:58:53;;;;;;;6.13;5.50;;;;;;;9.68;98.14;95917.34;5034210;28;20546;-67
2022/04/06 06:01:19;;;;;;;5.93;4.90;;;;;;;9.56;98.43;95920.06;5013029;28;20215;-69
2022/04/06 06:03:44;;;;;;;6.60;5.43;;;;;;;9.58;97.20;95921.38;5014660;28;20211;-69
2022/04/06 06:06:09;;;;;;;6.30;5.47;;;;;;;9.71;96.72;95917.63;5013811;28;20183;-69
2022/04/06 06:08:35;;;;;;;6.40;5.27;;;;;;;9.51;98.33;95912.13;5014912;28;20183;-69
2022/04/06 06:11:00;;;;;;;5.63;5.13;;;;;;;9.63;98.05;95917.28;5014259;28;20291;-68
2022/04/06 06:13:25;;;;;;;5.57;5.07;;;;;;;9.76;96.83;95920.31;5014535;28;20176;-69
2022/04/06 06:15:51;;;;;;;6.60;5.03;;;;;;;9.81;96.32;95924.81;5015139;28;20227;-69
2022/04/06 06:18:16;;;;;;;5.93;5.33;;;;;;;9.84;95.70;95914.66;5014222;28;20191;-68
2022/04/06 06:20:42;;;;;;;5.93;5.33;;;;;;;9.74;96.98;95921.59;5014505;28;20265;-68
2022/04/06 06:23:08;;;;;;;5.67;4.67;;;;;;;9.89;95.60;95922.59;5013319;28;20187;-67
2022/04/06 06:25:34;;;;;;;5.37;4.83;;;;;;;9.74;96.81;95919.78;5014236;28;20191;-67
2022/04/06 06:27:59;;;;;;;6.30;5.43;;;;;;;10.03;94.98;95923.78;5014201;28;20175;-69
2022/04/06 06:30:27;;;;;;;5.30;4.80;;;;;;;10.06;95.03;95919.09;5013075;28;20238;-67
2022/04/06 06:32:53;;;;;;;5.63;4.80;;;;;;;9.99;94.91;95925.31;5012777;28;20196;-70
2022/04/06 06:35:20;;;;;;;6.03;4.73;;;;;;;9.94;95.84;95919.22;5013882;28;20242;-69
2022/04/06 06:37:50;;;;;;;6.30;5.50;;;;;;;10.21;94.07;95917.47;5012527;28;20190;-68
2022/04/06 06:40:17;;;;;;;5.80;5.30;;;;;;;10.08;94.83;95914.44;5014442;28;20191;-69
2022/04/06 06:42:43;;;;;;;5.30;4.50;;;;;;;10.24;93.56;95919.63;5014113;28;20239;-68
2022/04/06 06:45:09;;;;;;;5.37;4.87;;;;;;;10.00;94.70;95920.88;5013777;28;20614;-69
2022/04/06 06:47:35;;;;;;;4.93;4.53;;;;;;;10.22;94.19;95919.06;5013806;28;20262;-71
2022/04/06 06:50:01;;;;;;;4.63;4.23;;;;;;;9.99;94.85;95921.91;5012765;28;20267;-68
2022/04/06 06:52:26;;;;;;;4.53;4.10;;;;;;;10.03;94.98;95918.56;5014331;28;20191;-68
2022/04/06 06:54:52;;;;;;;5.63;4.23;;;;;;;10.17;94.26;95919.03;5003054;28;20188;-69
2022/04/06 06:57:17;;;;;;;5.10;4.60;;;;;;;10.27;93.62;95920.94;5002493;28;20180;-69
2022/04/06 06:59:43;;;;;;;5.13;4.63;;;;;;;10.47;92.46;95917.78;5013691;28;20214;-68
2022/04/06 07:02:09;;;;;;;4.93;4.27;;;;;;;10.53;91.65;95920.19;5026156;28;20313;-69
2022/04/06 07:04:35;;;;;;;5.67;4.20;;;;;;;10.50;91.30;95919.88;5032748;28;20218;-69
2022/04/06 07:07:01;;;;;;;4.33;3.63;;;;;;;10.65;91.15;95915.56;5018415;28;20309;-69
2022/04/06 07:09:26;;;;;;;5.03;4.03;;;;;;;10.68;90.32;95909.84;5027835;28;20174;-69
2022/04/06 07:11:52;;;;;;;3.33;2.47;;;;;;;10.86;94.81;95907.91;5032615;28;20195;-75
2022/04/06 07:14:21;;;;;;;3.10;2.80;;;;;;;11.47;96.71;95907.31;5032492;28;20187;-74
2022/04/06 07:16:46;;;;;;;4.43;3.20;;;;;;;11.36;87.21;95899.63;5015602;28;20191;-70
2022/04/06 07:19:12;;;;;;;3.40;3.10;;;;;;;11.22;85.82;95900.06;5013174;28;20185;-70
2022/04/06 07:21:37;;;;;;;2.70;2.50;;;;;;;11.34;85.01;95896.47;5032685;28;20270;-70
2022/04/06 07:24:03;;;;;;;2.80;2.60;;;;;;;11.12;85.28;95896.56;5033123;28;20661;-70
2022/04/06 07:26:29;;;;;;;3.47;2.77;;;;;;;10.98;86.20;95890.94;5032601;28;20182;-68
2022/04/06 07:28:55;;;;;;;3.63;2.47;;;;;;;11.11;86.06;95902.84;5031081;28;20190;-70
2022/04/06 07:31:20;;;;;;;3.20;2.43;;;;;;;11.21;85.46;95901.09;5032038;28;20521;-70
2022/04/06 07:33:45;;;;;;;2.70;2.50;;;;;;;11.34;84.41;95888.59;5032426;28;20661;-69
2022/04/06 07:36:11;;;;;;;2.90;2.70;;;;;;;11.53;83.73;95895.81;5014573;28;20183;-71
2022/04/06 07:38:36;;;;;;;2.53;2.33;;;;;;;11.74;82.83;95886.22;5031806;28;20266;-72
2022/04/06 07:41:02;;;;;;;3.73;2.43;;;;;;;11.50;82.76;95883.19;5031509;28;20655;-70
2022/04/06 07:43:27;;;;;;;2.70;2.50;;;;;;;11.67;82.69;95889.03;5032614;28;20272;-69
2022/04/06 07:45:53;;;;;;;2.67;2.47;;;;;;;11.79;82.04;95882.81;5032787;28;20231;-71
2022/04/06 07:48:19;;;;;;;3.30;2.17;;;;;;;11.89;81.07;95881.03;5032657;28;20193;-71
2022/04/06 07:50:45;;;;;;;2.50;2.30;;;;;;;11.63;81.17;95877.47;5031848;28;20248;-71
2022/04/06 07:53:11;;;;;;;2.17;2.07;;;;;;;11.78;81.81;95889.91;5032221;28;20552;-70
2022/04/06 07:55:37;;;;;;;2.20;2.00;;;;;;;12.14;79.26;95887.44;5032302;28;20672;-70
2022/04/06 07:58:02;;;;;;;3.73;2.13;;;;;;;12.35;78.33;95886.44;5032234;28;20190;-71
2022/04/06 08:00:33;;;;;;;2.00;1.90;;;;;;;12.52;77.70;95879.13;5032191;28;20202;-71
2022/04/06 08:02:59;;;;;;;2.03;1.93;;;;;;;12.57;77.66;95884.38;5032288;28;20174;-66
2022/04/06 08:05:25;;;;;;;2.27;2.10;;;;;;;12.70;74.93;95886.50;5032145;28;20540;-70
2022/04/06 08:07:53;;;;;;;2.33;2.13;;;;;;;12.63;75.32;95887.81;5032790;28;20202;-69
2022/04/06 08:10:21;;;;;;;2.00;1.90;;;;;;;12.93;74.20;95891.22;5014097;28;20269;-70
2022/04/06 08:12:47;;;;;;;2.43;2.33;;;;;;;13.01;73.84;95884.66;5032233;28;20201;-71
2022/04/06 08:15:15;;;;;;;2.00;1.90;;;;;;;13.01;74.29;95889.13;5031724;28;20197;-70
2022/04/06 08:17:45;;;;;;;1.90;1.80;;;;;;;13.00;73.78;95884.91;5031845;28;20210;-71
2022/04/06 08:20:14;;;;;;;2.00;1.90;;;;;;;12.89;73.24;95889.41;5032113;28;20198;-72
2022/04/06 08:22:41;;;;;;;2.67;2.03;;;;;;;12.86;73.66;95895.19;5032137;28;20185;-70
2022/04/06 08:25:10;;;;;;;2.27;2.17;;;;;;;12.65;74.72;95890.97;5031591;28;20289;-67
2022/04/06 08:27:39;;;;;;;2.40;2.10;;;;;;;13.02;73.65;95881.00;5031583;28;20582;-69
2022/04/06 08:30:06;;;;;;;3.17;2.37;;;;;;;12.68;75.09;95891.22;5031508;28;20244;-68
2022/04/06 08:32:32;;;;;;;2.60;2.40;;;;;;;12.55;75.06;95886.47;5031812;28;20187;-67
2022/04/06 08:34:57;;;;;;;2.00;1.90;;;;;;;13.03;73.33;95884.41;5031969;28;20197;-67
2022/04/06 08:37:23;;;;;;;1.97;1.87;;;;;;;12.98;73.10;95889.69;5031928;28;20257;-67
2022/04/06 08:39:49;;;;;;;1.90;1.80;;;;;;;13.05;72.37;95890.97;5032228;28;20217;-67
2022/04/06 08:42:15;;;;;;;1.70;1.60;;;;;;;12.84;73.21;95892.81;5035172;28;20178;-68
2022/04/06 08:44:40;;;;;;;2.27;2.10;;;;;;;12.59;74.21;95886.75;5017730;28;20637;-68
2022/04/06 08:47:09;;;;;;;2.00;1.90;;;;;;;12.53;74.48;95888.59;5035624;28;20193;-67
2022/04/06 08:49:35;;;;;;;2.27;1.90;;;;;;;12.60;74.19;95880.41;5035502;28;20248;-68
2022/04/06 08:52:03;;;;;;;3.60;1.87;;;;;;;13.01;72.98;95878.63;5035510;28;20193;-67
2022/04/06 08:54:30;;;;;;;1.40;1.40;;;;;;;12.66;73.17;95882.81;5034910;28;20645;-68
2022/04/06 08:56:55;;;;;;;2.27;1.77;;;;;;;13.20;71.40;95885.75;5034834;28;20714;-68
2022/04/06 08:59:22;;;;;;;2.53;1.30;;;;;;;12.99;70.52;95881.50;5035071;28;20179;-68
2022/04/06 09:01:47;;;;;;;1.53;1.43;;;;;;;12.98;70.79;95887.84;5035641;28;20569;-68
2022/04/06 09:04:13;;;;;;;1.40;1.30;;;;;;;13.02;69.71;95881.00;5035209;28;20292;-68
2022/04/06 09:06:40;;;;;;;1.10;1.10;;;;;;;12.98;69.09;95893.09;5017918;28;20187;-69
2022/04/06 09:09:05;;;;;;;1.50;1.40;;;;;;;13.11;68.04;95882.03;5035607;28;20644;-67
2022/04/06 09:11:43;;;;;;;1.00;1.00;;;;;;;12.98;68.40;95882.56;5033853;28;20195;-67
2022/04/06 09:14:09;;;;;;;0.93;0.90;;;;;;;13.22;67.96;95880.19;5035458;28;20233;-69
2022/04/06 09:16:35;;;;;;;0.97;0.97;;;;;;;13.35;65.96;95878.88;5034866;28;20262;-68
2022/04/06 09:19:11;;;;;;;0.90;0.90;;;;;;;13.71;64.67;95883.00;5035131;28;20302;-67
2022/04/06 09:21:41;;;;;;;1.00;1.00;;;;;;;13.85;63.34;95870.84;5035459;28;20187;-69
2022/04/06 09:24:17;;;;;;;2.07;1.03;;;;;;;14.08;62.84;95875.50;5034092;28;20260;-71
2022/04/06 09:26:43;;;;;;;0.90;0.90;;;;;;;14.57;62.13;95875.50;5035260;28;20188;-68
2022/04/06 09:29:12;;;;;;;0.80;0.80;;;;;;;14.11;59.65;95869.66;5034368;28;20186;-68
2022/04/06 09:31:40;;;;;;;0.80;0.80;;;;;;;14.24;60.51;95872.78;5035076;28;20202;-68
2022/04/06 09:34:10;;;;;;;0.87;0.87;;;;;;;13.88;60.28;95862.38;5035253;28;20610;-67
2022/04/06 09:36:38;;;;;;;0.70;0.70;;;;;;;14.34;59.46;95867.44;5035266;28;20195;-67
2022/04/06 09:39:05;;;;;;;0.60;0.60;;;;;;;14.67;58.49;95864.09;5017117;28;20636;-67
2022/04/06 09:41:31;;;;;;;0.90;0.90;;;;;;;14.41;58.84;95863.50;5034639;28;20186;-67
2022/04/06 09:44:07;;;;;;;0.70;0.70;;;;;;;14.67;58.32;95856.19;5034423;28;20206;-68
2022/04/06 09:49:19;;;;;;;1.00;1.00;;;;;;;13.96;59.21;95851.31;5034901;28;20236;-68
2022/04/06 09:51:53;;;;;;;0.80;0.80;;;;;;;13.80;60.56;95857.69;5016720;28;20244;-68
2022/04/06 09:54:19;;;;;;;0.70;0.70;;;;;;;13.73;60.52;95855.34;5033484;28;20528;-69
2022/04/06 09:56:46;;;;;;;0.67;0.67;;;;;;;14.20;59.61;95848.81;5032960;28;20290;-67
2022/04/06 09:59:13;;;;;;;0.80;0.80;;;;;;;13.95;59.40;95844.44;5034499;28;20198;-67
2022/04/06 10:01:52;;;;;;;0.90;0.90;;;;;;;13.91;60.06;95846.06;5014577;28;20222;-67
2022/04/06 10:04:21;;;;;;;0.87;0.87;;;;;;;13.94;59.80;95844.72;5014579;28;20265;-69
2022/04/06 10:06:48;;;;;;;0.87;0.87;;;;;;;14.12;60.13;95836.19;5014286;28;20270;-69
2022/04/06 10:09:16;;;;;;;1.37;1.30;;;;;;;15.06;70.40;95831.59;5014949;28;20241;-72
2022/04/06 10:11:43;;;;;;;0.90;0.90;;;;;;;15.12;58.49;95833.13;5015081;28;20214;-67
2022/04/06 10:14:09;;;;;;;0.90;0.90;;;;;;;15.07;57.78;95827.91;5014699;28;20547;-66
2022/04/06 10:16:36;;;;;;;1.90;0.90;;;;;;;14.82;58.04;95821.00;5014190;28;20670;-67
2022/04/06 10:19:03;;;;;;;0.80;0.80;;;;;;;14.60;58.54;95818.03;5014259;28;20727;-67
2022/04/06 10:21:55;;;;;;;1.03;0.90;;;;;;;14.41;58.78;95821.31;5014277;28;20203;-68
2022/04/06 10:24:33;;;;;;;0.70;0.70;;;;;;;14.38;58.89;95815.78;5014297;28;20219;-67
2022/04/06 10:27:15;;;;;;;0.60;0.60;;;;;;;14.63;58.54;95812.19;5013437;28;20630;-68
2022/04/06 10:30:13;;;;;;;1.77;0.70;;;;;;;14.84;57.73;95805.66;5011760;28;20296;-71
2022/04/06 10:32:43;;;;;;;0.60;0.60;;;;;;;15.08;57.54;95805.72;5010297;28;20191;-68
2022/04/06 10:35:25;;;;;;;0.70;0.70;;;;;;;14.59;58.10;95801.41;5007867;28;20180;-68
2022/04/06 10:37:58;;;;;;;0.80;0.80;;;;;;;15.06;57.32;95792.00;5011856;28;20191;-68
2022/04/06 10:40:25;;;;;;;1.00;1.00;;;;;;;15.28;57.86;95790.47;5013354;28;20187;-68
2022/04/06 10:42:51;;;;;;;0.90;0.90;;;;;;;15.42;56.89;95792.44;5013005;28;20302;-68
2022/04/06 10:45:28;;;;;;;0.70;0.70;;;;;;;15.26;55.73;95783.91;5014222;28;20202;-67
2022/04/06 10:48:13;;;;;;;0.77;0.70;;;;;;;15.47;54.43;95785.25;5013885;28;20206;-67
2022/04/06 10:50:43;;;;;;;0.70;0.70;;;;;;;15.57;54.82;95779.09;5013837;28;20238;-67
2022/04/06 10:53:21;;;;;;;0.87;0.83;;;;;;;15.54;54.11;95772.53;5014071;28;20194;-67
2022/04/06 10:56:06;;;;;;;0.70;0.70;;;;;;;15.60;54.19;95771.41;5013659;28;20194;-67
2022/04/06 10:58:56;;;;;;;0.70;0.70;;;;;;;16.02;53.18;95764.50;5013731;28;20211;-67
2022/04/06 11:01:26;;;;;;;0.60;0.60;;;;;;;15.82;52.21;95768.22;5020988;28;20220;-66
2022/04/06 11:04:17;;;;;;;0.70;0.70;;;;;;;15.11;53.82;95755.78;5032527;28;20222;-67
2022/04/06 11:07:03;;;;;;;0.70;0.70;;;;;;;15.23;54.69;95763.34;5033337;28;20186;-67
2022/04/06 11:12:21;;;;;;;0.70;0.70;;;;;;;16.20;52.84;95746.00;5033143;28;20204;-67
2022/04/06 11:15:10;;;;;;;0.73;0.73;;;;;;;15.99;53.03;95744.72;5033302;28;20182;-67
2022/04/06 11:17:42;;;;;;;1.30;0.87;;;;;;;16.01;52.58;95745.22;5033330;28;20723;-68
2022/04/06 11:20:14;;;;;;;1.33;0.93;;;;;;;15.99;53.23;95734.16;5033334;28;20225;-66
2022/04/06 11:22:44;;;;;;;0.63;0.63;;;;;;;15.61;53.14;95730.69;5032939;28;20187;-68
2022/04/06 11:25:16;;;;;;;0.70;0.70;;;;;;;15.48;53.96;95731.38;5032331;28;20223;-68
2022/04/06 11:27:44;;;;;;;0.80;0.80;;;;;;;15.44;53.48;95724.28;5010017;28;20193;-66
2022/04/06 11:30:16;;;;;;;1.07;0.90;;;;;;;15.09;57.60;95726.28;5031755;28;20193;-72
2022/04/06 11:32:43;;;;;;;0.70;0.70;;;;;;;15.31;55.75;95718.63;5032480;28;20189;-76
2022/04/06 11:35:12;;;;;;;0.93;0.90;;;;;;;15.20;54.77;95719.81;5032553;28;20182;-68
2022/04/06 11:37:48;;;;;;;0.70;0.63;;;;;;;15.01;54.88;95713.69;5032974;28;20195;-67
2022/04/06 11:40:19;;;;;;;0.90;0.83;;;;;;;14.87;55.08;95704.88;5032421;28;20540;-69
2022/04/06 11:42:48;;;;;;;0.70;0.70;;;;;;;14.90;54.84;95706.94;5032468;28;20182;-68
2022/04/06 11:45:37;;;;;;;0.70;0.70;;;;;;;15.19;54.12;95710.31;5032407;28;20252;-68
2022/04/06 11:48:05;;;;;;;0.77;0.77;;;;;;;15.56;53.74;95696.41;5032150;28;20267;-68